Time;durP1;ratioP1;P1;durP2;ratioP2;P2;SDS_P1;SDS_P2;PMS_P1;PMS_P2;Temp;Humidity;BMP_temperature;BMP_pressure;BME280_temperature;BME280_humidity;BME280_pressure;Samples;Min_cycle;Max_cycle;Signal;HPM_P1;HPM_P2
2021/06/27 00:11:23;;;;;;;;;;;;;;;;;;;;;
2021/06/27 00:17:21;;;;;;;6.15;4.67;;;;;;;21.11;63.62;99488.21;1530058;89;21032;-90
2021/06/27 00:20:02;;;;;;;5.40;4.10;;;;;;;22.68;62.51;99698.31;1509014;91;21966;-90
2021/06/27 00:29:33;;;;;;;4.17;3.87;;;;;;;22.65;62.79;99712.45;1639101;85;21039;-91
2021/06/27 01:25:49;;;;;;;4.45;3.55;;;;;;;20.02;65.50;99522.05;1634906;84;21161;-87
2021/06/27 01:31:33;;;;;;;4.10;3.27;;;;;;;21.41;65.81;99737.73;1541267;91;21071;-93
2021/06/27 01:34:17;;;;;;;4.22;3.70;;;;;;;21.35;66.25;99745.87;1590138;86;21783;-91
2021/06/27 01:39:56;;;;;;;4.40;3.12;;;;;;;21.19;66.73;99753.22;1639541;84;21051;-91
2021/06/27 01:42:32;;;;;;;3.80;3.47;;;;;;;21.12;66.75;99754.04;1620925;85;21449;-93
2021/06/27 01:45:20;;;;;;;7.75;3.72;;;;;;;21.08;67.14;99754.32;1620435;85;21210;-92
2021/06/27 01:48:15;;;;;;;;;;;;;;;;;;;;;
2021/06/27 01:57:09;;;;;;;3.87;3.58;;;;;;;21.22;67.36;99764.60;1612988;83;21193;-90
2021/06/27 01:59:47;;;;;;;3.58;3.27;;;;;;;21.32;67.75;99749.14;1582280;85;21101;-90
2021/06/27 02:02:49;;;;;;;;;;;;;;;;;;;;;
2021/06/27 02:04:53;;;;;;;4.97;3.55;;;;;;;21.36;67.62;99762.41;1646050;82;21267;-92
2021/06/27 02:07:28;;;;;;;3.37;3.17;;;;;;;21.38;67.09;99767.02;1667655;83;21044;-90
2021/06/27 02:09:55;;;;;;;3.75;3.45;;;;;;;21.42;68.10;99765.09;1659375;84;21014;-90
2021/06/27 02:30:47;;;;;;;;;;;;;;;;;;;;;
2021/06/27 02:40:00;;;;;;;;;;;;;;;;;;;;;
2021/06/27 02:42:50;;;;;;;3.52;3.22;;;;;;;22.27;65.50;99779.25;1524190;91;21444;-91
2021/06/27 02:45:38;;;;;;;5.00;4.37;;;;;;;22.57;64.38;99779.61;1526625;91;21200;-90
2021/06/27 03:00:44;;;;;;;;;;;;;;;;;;;;;
2021/06/27 03:09:55;;;;;;;2.20;2.00;;;;;;;22.33;61.84;99816.94;1568542;86;21173;-91
2021/06/27 03:12:34;;;;;;;4.80;2.47;;;;;;;21.86;62.67;99834.45;1541170;90;21106;-92
2021/06/27 03:21:47;;;;;;;1.70;1.60;;;;;;;21.26;64.72;99823.95;1564622;85;22965;31
2021/06/27 03:27:25;;;;;;;2.90;2.70;;;;;;;21.19;65.35;99816.91;1506277;92;21205;-90
2021/06/27 03:30:07;;;;;;;2.08;1.98;;;;;;;21.18;65.42;99810.41;1501990;93;21099;-90
2021/06/27 03:32:44;;;;;;;4.70;2.65;;;;;;;21.18;65.38;99815.82;1489287;93;21104;-88
2021/06/27 03:35:10;;;;;;;2.12;2.00;;;;;;;21.23;65.30;99809.05;1519133;91;21189;-90
2021/06/27 03:37:49;;;;;;;;;;;;;;;;;;;;;
2021/06/27 03:40:26;;;;;;;2.87;2.10;;;;;;;21.31;64.82;99815.27;1530611;88;21207;-90
2021/06/27 03:42:52;;;;;;;1.55;1.45;;;;;;;21.32;64.67;99814.20;1568600;89;21118;-92
2021/06/27 03:48:15;;;;;;;5.17;1.40;;;;;;;21.22;64.75;99801.19;1561799;87;21010;-90
2021/06/27 03:50:42;;;;;;;1.22;1.10;;;;;;;21.23;64.84;99802.80;1595704;87;21114;-92
2021/06/27 03:53:21;;;;;;;;;;;;;;;;;;;;;
2021/06/27 03:55:48;;;;;;;3.47;1.98;;;;;;;21.36;64.96;99794.11;1581617;84;21102;-89
2021/06/27 03:58:34;;;;;;;;;;;;;;;;;;;;;
2021/06/27 04:00:54;;;;;;;3.45;1.40;;;;;;;21.63;63.85;99806.04;1549855;89;21127;-91
2021/06/27 04:03:25;;;;;;;2.65;1.50;;;;;;;21.70;63.70;99799.79;1546499;87;21171;-91
2021/06/27 04:12:32;;;;;;;2.30;1.20;;;;;;;22.06;63.07;99783.94;1574272;87;21086;-91
2021/06/27 05:04:03;;;;;;;7.17;2.98;;;;;;;23.93;58.07;99812.98;1518128;91;21623;-81
2021/06/27 05:06:29;;;;;;;2.72;2.52;;;;;;;23.90;57.92;99827.44;1540590;89;21176;-79
2021/06/27 05:08:55;;;;;;;7.33;3.02;;;;;;;23.80;58.06;99834.89;1573363;88;21243;-80
2021/06/27 05:11:23;;;;;;;4.53;2.30;;;;;;;23.73;58.11;99841.99;1575182;89;21130;-80
2021/06/27 05:14:02;;;;;;;3.08;2.83;;;;;;;23.64;58.38;99846.44;1555563;90;21248;-82
2021/06/27 05:20:31;;;;;;;2.42;1.80;;;;;;;23.44;58.39;99830.59;1457620;93;21225;-82
2021/06/27 05:23:09;;;;;;;3.37;2.27;;;;;;;23.46;58.83;99834.38;1531937;90;21164;-83
2021/06/27 05:25:35;;;;;;;3.20;2.30;;;;;;;23.49;58.78;99852.30;1580258;88;21633;-84
2021/06/27 05:28:01;;;;;;;2.98;1.90;;;;;;;23.49;58.93;99857.74;1589693;89;21149;-82
2021/06/27 05:30:27;;;;;;;5.95;2.15;;;;;;;23.29;58.89;99819.30;1593463;88;21134;-81
2021/06/27 05:32:54;;;;;;;3.15;2.87;;;;;;;23.61;58.68;99863.35;1580937;88;21084;-83
2021/06/27 05:35:20;;;;;;;5.45;2.55;;;;;;;23.61;58.78;99861.99;1585422;89;21090;-82
2021/06/27 05:37:49;;;;;;;2.65;1.77;;;;;;;23.61;58.91;99849.19;1586128;89;21123;-82
2021/06/27 05:40:15;;;;;;;3.02;2.20;;;;;;;23.60;58.64;99847.59;1573449;89;21082;-80
2021/06/27 05:42:41;;;;;;;1.92;1.82;;;;;;;23.56;58.62;99849.80;1589909;89;21093;-82
2021/06/27 05:45:08;;;;;;;2.37;1.37;;;;;;;23.46;58.88;99848.78;1571745;89;21329;-80
2021/06/27 05:47:34;;;;;;;1.80;1.70;;;;;;;23.41;59.46;99850.73;1592581;89;21093;-80
2021/06/27 05:50:00;;;;;;;2.33;1.92;;;;;;;23.43;59.76;99846.66;1588366;88;21723;-82
2021/06/27 05:52:26;;;;;;;4.62;2.30;;;;;;;23.50;59.82;99840.31;1588120;89;21077;-81
2021/06/27 05:54:52;;;;;;;3.70;2.30;;;;;;;23.25;59.57;99793.78;1583490;89;21176;-82
2021/06/27 05:57:18;;;;;;;3.20;2.90;;;;;;;23.59;59.26;99841.06;1583017;89;21149;-81
2021/06/27 05:59:44;;;;;;;2.00;1.90;;;;;;;23.60;59.39;99841.31;1593830;88;21058;-81
2021/06/27 06:02:10;;;;;;;3.90;2.42;;;;;;;23.63;58.86;99851.08;1579018;88;22279;-81
2021/06/27 06:04:36;;;;;;;4.28;2.75;;;;;;;23.66;58.77;99857.88;1553124;89;21127;-82
2021/06/27 06:07:03;;;;;;;2.20;1.95;;;;;;;23.68;58.65;99855.67;1577616;90;21100;-81
2021/06/27 06:09:29;;;;;;;3.67;2.20;;;;;;;23.76;58.49;99855.03;1578509;89;21141;-81
2021/06/27 06:11:55;;;;;;;7.30;2.83;;;;;;;23.84;58.24;99853.63;1578768;89;21101;-84
2021/06/27 06:14:22;;;;;;;3.27;2.17;;;;;;;23.90;57.71;99838.32;1578262;89;21085;-81
2021/06/27 06:16:50;;;;;;;2.05;1.90;;;;;;;24.04;57.52;99839.78;1576510;89;21092;-82
2021/06/27 06:19:19;;;;;;;3.47;2.42;;;;;;;24.27;55.94;99834.61;1582150;88;21030;-83
2021/06/27 06:21:47;;;;;;;3.72;2.35;;;;;;;24.45;56.09;99836.55;1578840;89;21117;-83
2021/06/27 06:24:14;;;;;;;2.98;2.22;;;;;;;24.66;55.31;99827.57;1580196;89;21661;-83
2021/06/27 06:26:41;;;;;;;3.05;2.00;;;;;;;24.83;54.99;99813.98;1577410;89;21098;-82
2021/06/27 06:29:07;;;;;;;1.60;1.50;;;;;;;25.03;54.21;99822.38;1572681;89;21108;-82
2021/06/27 06:31:34;;;;;;;1.57;1.30;;;;;;;25.24;52.57;99821.51;1583697;88;22339;-81
2021/06/27 06:34:00;;;;;;;1.98;1.50;;;;;;;25.39;52.09;99814.45;1571290;88;21602;-83
2021/06/27 06:36:26;;;;;;;3.42;1.40;;;;;;;25.49;51.73;99814.02;1558672;90;21161;-83
2021/06/27 06:38:52;;;;;;;3.25;1.52;;;;;;;25.58;51.64;99824.46;1558483;90;21582;-83
2021/06/27 06:41:19;;;;;;;0.95;0.82;;;;;;;25.57;51.04;99828.31;1556396;91;21529;-82
2021/06/27 06:43:47;;;;;;;2.80;1.45;;;;;;;25.53;51.35;99826.74;1556948;90;21036;-82
2021/06/27 06:46:16;;;;;;;1.35;1.07;;;;;;;25.56;51.26;99818.50;1571133;89;21107;-83
2021/06/27 06:48:43;;;;;;;3.00;1.35;;;;;;;25.60;51.49;99814.88;1582087;89;21161;-84
2021/06/27 06:51:09;;;;;;;1.47;1.35;;;;;;;25.73;50.93;99811.92;1575655;90;21006;-83
2021/06/27 06:53:38;;;;;;;4.30;1.37;;;;;;;25.94;51.04;99806.09;1576039;89;21082;-81
2021/06/27 06:56:06;;;;;;;2.72;1.22;;;;;;;26.21;49.86;99801.95;1569738;89;21116;-81
2021/06/27 06:58:34;;;;;;;2.20;1.17;;;;;;;26.46;49.11;99799.77;1559465;90;21083;-81
2021/06/27 07:01:03;;;;;;;1.65;1.57;;;;;;;26.76;48.82;99797.48;1566154;90;21199;-82
2021/06/27 07:03:32;;;;;;;2.37;1.40;;;;;;;27.00;48.46;99789.78;1553860;90;21134;-82
2021/06/27 07:06:05;;;;;;;2.27;1.75;;;;;;;27.23;47.88;99791.12;1561804;90;22303;-82
2021/06/27 07:08:33;;;;;;;4.87;2.50;;;;;;;27.45;47.59;99786.78;1558679;90;21107;-81
2021/06/27 07:10:59;;;;;;;1.20;1.10;;;;;;;27.86;46.68;99789.73;1556858;90;21108;-83
2021/06/27 07:13:27;;;;;;;2.02;1.82;;;;;;;28.20;46.03;99786.33;1530590;91;21179;-82
2021/06/27 07:15:53;;;;;;;2.95;1.22;;;;;;;28.36;45.29;99771.58;1544385;90;21105;-83
2021/06/27 07:18:25;;;;;;;3.22;1.25;;;;;;;28.28;45.57;99768.28;1546007;89;21166;-84
2021/06/27 07:20:59;;;;;;;2.37;1.25;;;;;;;28.19;45.08;99777.05;1549685;88;21127;-85
2021/06/27 07:23:31;;;;;;;2.42;1.85;;;;;;;28.11;45.54;99775.34;1558427;86;21090;-84
2021/06/27 07:25:57;;;;;;;3.33;2.02;;;;;;;27.95;46.21;99771.42;1551819;88;21104;-84
2021/06/27 07:28:24;;;;;;;1.98;1.77;;;;;;;27.82;46.55;99760.00;1582739;89;22415;-86
2021/06/27 07:30:50;;;;;;;2.10;1.47;;;;;;;27.77;47.00;99767.25;1588026;89;21614;-85
2021/06/27 07:33:17;;;;;;;2.17;1.90;;;;;;;27.75;46.98;99755.81;1579528;88;21181;-85
2021/06/27 07:35:44;;;;;;;3.92;1.65;;;;;;;27.79;46.93;99752.45;1591738;88;21133;-85
2021/06/27 07:38:10;;;;;;;2.47;1.75;;;;;;;27.81;47.08;99744.72;1593300;88;21228;-87
2021/06/27 07:40:37;;;;;;;2.85;2.52;;;;;;;27.87;47.53;99733.28;1561356;89;21168;-85
2021/06/27 07:43:03;;;;;;;2.02;1.98;;;;;;;27.96;47.52;99717.70;1543481;89;22206;-87
2021/06/27 07:45:31;;;;;;;3.15;1.82;;;;;;;27.98;48.15;99713.85;1522803;90;21217;-85
2021/06/27 07:47:58;;;;;;;2.15;1.67;;;;;;;27.93;49.12;99723.84;1546866;91;21184;-84
2021/06/27 07:50:24;;;;;;;3.12;2.40;;;;;;;27.88;49.42;99715.73;1536660;90;21703;-85
2021/06/27 07:52:51;;;;;;;4.25;2.95;;;;;;;27.75;50.06;99720.78;1542306;91;21179;-86
2021/06/27 07:55:17;;;;;;;4.22;2.58;;;;;;;27.54;50.38;99709.62;1539227;90;21359;-88
2021/06/27 07:57:43;;;;;;;4.65;2.92;;;;;;;27.32;51.04;99708.56;1562393;89;21068;-85
2021/06/27 08:00:13;;;;;;;3.35;3.05;;;;;;;27.16;52.18;99704.05;1552112;90;21091;-85
2021/06/27 08:02:39;;;;;;;4.00;3.60;;;;;;;26.99;52.69;99697.93;1535769;89;246736;-85
2021/06/27 08:05:07;;;;;;;3.22;3.00;;;;;;;26.82;53.41;99701.91;1514066;93;21650;-84
2021/06/27 08:07:34;;;;;;;4.35;3.70;;;;;;;26.66;53.92;99700.14;1520504;93;21070;-83
2021/06/27 08:10:03;;;;;;;3.95;3.75;;;;;;;26.54;54.22;99695.75;1517101;92;21661;-84
2021/06/27 08:12:29;;;;;;;4.30;4.00;;;;;;;26.40;54.48;99696.62;1549978;89;21128;-82
2021/06/27 08:14:55;;;;;;;4.47;3.47;;;;;;;26.32;54.60;99697.94;1580591;89;21156;-86
2021/06/27 08:17:21;;;;;;;4.08;3.58;;;;;;;26.27;54.88;99693.95;1578082;89;21075;-84
2021/06/27 08:19:51;;;;;;;3.52;3.33;;;;;;;26.24;55.12;99698.11;1555726;88;21094;-82
2021/06/27 08:22:17;;;;;;;3.72;3.52;;;;;;;26.19;54.98;99683.20;1582214;87;21608;-84
2021/06/27 08:24:45;;;;;;;4.15;3.72;;;;;;;26.32;54.42;99691.10;1566927;89;21598;-85
2021/06/27 08:27:13;;;;;;;3.47;3.27;;;;;;;26.40;54.35;99686.25;1541533;90;21133;-88
2021/06/27 08:32:35;;;;;;;4.05;3.62;;;;;;;26.57;53.91;99674.07;1440210;89;5441947;-85
2021/06/27 08:35:18;;;;;;;2.67;2.52;;;;;;;26.67;53.11;99673.03;1582459;87;21203;-87
2021/06/27 08:37:54;;;;;;;4.17;3.17;;;;;;;26.75;52.76;99676.97;1576076;88;21119;-87
2021/06/27 08:43:12;;;;;;;3.47;3.17;;;;;;;26.72;52.78;99675.65;1575383;87;21137;-87
2021/06/27 08:48:49;;;;;;;4.00;3.70;;;;;;;26.79;53.36;99672.48;1541299;88;21189;-85
2021/06/27 08:51:18;;;;;;;3.87;3.45;;;;;;;26.91;53.41;99663.70;1601119;87;21156;-84
2021/06/27 08:53:57;;;;;;;6.28;4.33;;;;;;;26.95;53.51;99668.77;1606913;87;21120;-87
2021/06/27 08:56:52;;;;;;;3.87;3.58;;;;;;;26.92;53.34;99670.79;1570029;88;21160;-86
2021/06/27 08:59:16;;;;;;;4.22;3.92;;;;;;;26.90;53.56;99675.20;1594390;86;22557;-85
2021/06/27 09:04:34;;;;;;;;;;;;;;;;;;;;;
2021/06/27 09:07:50;;;;;;;;;;;;;;;;;;;;;
2021/06/27 09:10:25;;;;;;;5.75;4.15;;;;;;;27.26;52.68;99671.53;1566277;89;21160;-88
2021/06/27 09:16:09;;;;;;;3.87;3.58;;;;;;;27.34;52.39;99677.58;1572622;89;21046;-88
2021/06/27 09:18:54;;;;;;;;;;;;;;;;;;;;;
2021/06/27 09:21:50;;;;;;;;;;;;;;;;;;;;;
2021/06/27 09:24:29;;;;;;;3.95;1.82;;;;;;;27.60;48.21;99689.75;1493796;92;21276;-87
2021/06/27 09:27:40;;;;;;;;;;;;;;;;;;;;;
2021/06/27 09:30:04;;;;;;;2.80;1.67;;;;;;;27.67;47.72;99688.16;1475438;91;21201;-87
2021/06/27 09:32:49;;;;;;;2.10;1.92;;;;;;;27.76;47.22;99694.46;1558176;90;21177;-88
2021/06/27 09:35:57;;;;;;;;;;;;;;;;;;;;;
2021/06/27 09:38:36;;;;;;;1.85;1.45;;;;;;;27.70;47.27;99698.45;1555132;89;21108;-86
2021/06/27 09:41:24;;;;;;;2.20;2.00;;;;;;;27.75;47.47;99701.05;1552945;90;21126;-86
2021/06/27 09:44:31;;;;;;;2.02;1.92;;;;;;;27.88;46.96;99703.98;1584228;89;21181;-85
2021/06/27 09:46:51;;;;;;;4.87;2.22;;;;;;;27.91;46.92;99707.47;1547487;90;21118;-84
2021/06/27 09:49:38;;;;;;;2.50;2.40;;;;;;;27.90;47.19;99700.39;1543817;92;21144;-87
2021/06/27 09:52:16;;;;;;;2.35;2.02;;;;;;;27.92;47.57;99710.46;1530157;91;21078;-86
2021/06/27 09:54:50;;;;;;;1.85;1.75;;;;;;;27.91;47.84;99717.84;1542568;90;21040;-86
2021/06/27 09:57:21;;;;;;;3.12;2.80;;;;;;;27.96;48.12;99719.07;1569685;88;21670;-88
2021/06/27 09:59:48;;;;;;;5.08;2.67;;;;;;;28.01;48.26;99717.30;1606834;88;21026;-87
2021/06/27 10:02:16;;;;;;;3.00;2.77;;;;;;;28.01;47.88;99718.13;1560165;90;21672;-88
2021/06/27 10:04:53;;;;;;;2.55;2.35;;;;;;;27.94;48.06;99717.79;1623194;86;21116;-86
2021/06/27 10:07:40;;;;;;;2.80;2.58;;;;;;;27.88;48.24;99713.57;1590116;88;21131;-88
2021/06/27 10:10:29;;;;;;;4.08;2.45;;;;;;;27.86;48.93;99721.27;1612371;88;21101;-86
2021/06/27 10:13:14;;;;;;;5.55;3.15;;;;;;;27.93;49.31;99724.38;1603414;87;21554;-87
2021/06/27 10:15:46;;;;;;;3.77;3.37;;;;;;;27.97;49.12;99728.09;1603370;87;21061;-91
2021/06/27 10:18:13;;;;;;;3.27;3.08;;;;;;;27.97;49.34;99719.87;1602468;89;21692;-85
2021/06/27 10:20:48;;;;;;;3.67;2.52;;;;;;;28.03;49.34;99723.27;1593767;88;21213;-85
2021/06/27 10:23:17;;;;;;;2.75;2.55;;;;;;;28.14;48.49;99717.17;1622293;86;21091;-86
2021/06/27 10:25:59;;;;;;;3.27;3.08;;;;;;;28.39;46.88;99727.09;1586138;87;21250;-89
2021/06/27 10:28:43;;;;;;;3.77;1.95;;;;;;;28.39;46.88;99727.09;1576089;89;21137;-87
2021/06/27 10:34:31;;;;;;;2.05;1.95;;;;;;;28.60;46.53;99732.75;1501854;90;21133;-85
2021/06/27 10:37:48;;;;;;;2.80;2.62;;;;;;;28.62;47.12;99721.47;1514402;91;21137;-85
2021/06/27 10:40:26;;;;;;;1.75;1.72;;;;;;;28.63;46.67;99734.03;1584825;87;21079;-88
2021/06/27 10:43:15;;;;;;;3.95;2.30;;;;;;;28.59;47.18;99728.39;1546711;89;21129;-87
2021/06/27 10:46:15;;;;;;;;;;;;;;;;;;;;;
2021/06/27 10:48:39;;;;;;;3.33;2.62;;;;;;;28.48;47.08;99733.38;1586065;87;21106;-85
2021/06/27 10:51:13;;;;;;;2.87;2.08;;;;;;;28.39;46.85;99731.20;1609932;86;21185;-85
2021/06/27 10:54:22;;;;;;;2.35;2.25;;;;;;;28.27;47.14;99732.39;1602375;87;21630;-85
2021/06/27 10:57:32;;;;;;;3.33;2.60;;;;;;;28.24;47.76;99740.70;1577113;88;21164;-84
2021/06/27 11:00:11;;;;;;;6.53;2.40;;;;;;;27.00;48.16;99547.75;1587496;86;21129;-85
2021/06/27 11:03:01;;;;;;;2.83;2.62;;;;;;;28.20;48.09;99745.77;1604098;86;21653;-85
2021/06/27 11:05:49;;;;;;;;;;;;;;;;;;;;;
2021/06/27 11:11:16;;;;;;;2.75;2.60;;;;;;;27.98;48.02;99750.26;1543603;90;21140;-84
2021/06/27 11:14:16;;;;;;;2.60;2.40;;;;;;;27.81;48.44;99746.09;1568981;89;21092;-85
2021/06/27 11:17:07;;;;;;;3.30;2.70;;;;;;;27.74;48.37;99754.18;1340574;88;11907094;-86
2021/06/27 11:19:37;;;;;;;3.40;2.35;;;;;;;27.66;48.45;99749.50;1548785;89;21638;-86
2021/06/27 11:22:27;;;;;;;5.08;2.60;;;;;;;27.62;48.77;99747.72;1552278;89;21174;-86
2021/06/27 11:24:57;;;;;;;1.72;1.55;;;;;;;27.65;48.58;99749.80;1603463;88;21098;-88
2021/06/27 11:27:36;;;;;;;3.47;2.33;;;;;;;27.74;48.41;99751.44;1598210;88;21089;-85
2021/06/27 11:30:23;;;;;;;2.83;2.30;;;;;;;27.83;48.57;99747.94;1606109;88;21089;-83
2021/06/27 11:32:50;;;;;;;3.70;2.55;;;;;;;27.85;48.48;99748.42;1605434;86;21071;-85
2021/06/27 11:35:41;;;;;;;4.47;2.25;;;;;;;27.75;47.83;99748.16;1617293;86;21153;-85
2021/06/27 11:38:37;;;;;;;2.37;2.17;;;;;;;27.71;48.20;99740.34;1604678;87;21246;-85
2021/06/27 11:41:11;;;;;;;2.37;2.17;;;;;;;27.63;47.90;99741.91;1606034;86;21094;-86
2021/06/27 11:44:00;;;;;;;4.60;2.30;;;;;;;27.49;48.36;99750.81;1611479;86;21018;-85
2021/06/27 11:46:39;;;;;;;4.60;2.52;;;;;;;27.36;48.81;99752.52;1632962;86;21004;-84
2021/06/27 11:49:14;;;;;;;6.17;2.52;;;;;;;27.28;48.95;99745.89;1592984;88;21089;-85
2021/06/27 11:51:50;;;;;;;6.30;2.72;;;;;;;27.25;49.23;99743.77;1615163;87;21602;-85
2021/06/27 11:54:26;;;;;;;5.05;2.55;;;;;;;27.25;49.53;99750.61;1599126;87;21199;-86
2021/06/27 11:57:05;;;;;;;2.47;2.15;;;;;;;27.25;49.52;99738.30;1636562;86;22261;-88
2021/06/27 11:59:43;;;;;;;3.30;2.55;;;;;;;27.28;49.94;99741.78;1625483;86;21662;-87
2021/06/27 12:02:24;;;;;;;2.47;2.27;;;;;;;27.35;49.73;99742.14;1629450;86;21199;-86
2021/06/27 12:04:55;;;;;;;3.20;2.40;;;;;;;27.47;49.18;99742.11;1616383;86;21079;-86
2021/06/27 12:07:39;;;;;;;2.75;2.52;;;;;;;27.58;49.26;99747.55;1600090;87;21156;-86
2021/06/27 12:10:22;;;;;;;2.60;2.25;;;;;;;27.68;49.02;99743.14;1611339;86;21581;-83
2021/06/27 12:12:53;;;;;;;4.55;2.35;;;;;;;27.69;48.74;99721.50;1601168;87;21077;-84
2021/06/27 12:15:40;;;;;;;3.22;1.62;;;;;;;27.70;47.62;99734.05;1613208;86;21070;-85
2021/06/27 12:18:17;;;;;;;2.92;1.57;;;;;;;27.63;46.52;99737.00;1626787;86;21058;-87
2021/06/27 12:20:57;;;;;;;2.20;1.62;;;;;;;27.52;46.86;99740.58;1599859;88;21161;-85
2021/06/27 12:23:38;;;;;;;4.00;1.35;;;;;;;27.42;46.50;99735.40;1634325;85;21057;-83
2021/06/27 12:26:09;;;;;;;2.72;1.50;;;;;;;27.35;46.57;99735.84;1625673;86;21171;-83
2021/06/27 12:28:40;;;;;;;1.62;1.22;;;;;;;27.32;46.84;99740.02;1608598;86;21072;-85
2021/06/27 12:31:24;;;;;;;3.92;1.60;;;;;;;27.33;47.20;99740.28;1616161;87;21066;-86
2021/06/27 12:33:58;;;;;;;1.95;1.60;;;;;;;27.35;47.11;99742.68;1609236;87;21136;-84
2021/06/27 12:36:32;;;;;;;1.45;1.45;;;;;;;27.32;47.41;99752.34;1611844;86;21130;-86
2021/06/27 12:39:10;;;;;;;1.90;1.80;;;;;;;27.32;47.71;99751.54;1633383;86;21077;-85
2021/06/27 12:41:38;;;;;;;1.62;1.52;;;;;;;27.32;47.71;99740.59;1647011;86;21028;-84
2021/06/27 12:44:09;;;;;;;2.45;2.20;;;;;;;27.35;47.84;99736.67;1631562;86;21129;-84
2021/06/27 12:46:49;;;;;;;3.02;1.75;;;;;;;27.36;47.82;99736.10;1610147;88;21446;-85
2021/06/27 12:49:33;;;;;;;3.50;1.98;;;;;;;27.34;47.93;99733.67;1626781;86;21122;-84
2021/06/27 12:52:06;;;;;;;5.00;1.67;;;;;;;27.32;48.07;99725.55;1620295;86;21051;-84
2021/06/27 12:54:45;;;;;;;4.03;2.05;;;;;;;27.30;47.74;99736.00;1597029;88;21086;-84
2021/06/27 12:57:21;;;;;;;6.58;1.80;;;;;;;27.24;48.20;99728.46;1611239;87;21053;-85
2021/06/27 12:59:56;;;;;;;1.85;1.75;;;;;;;27.15;48.54;99715.30;1637820;86;21125;-84
2021/06/27 13:02:31;;;;;;;4.72;2.00;;;;;;;27.11;48.93;99726.06;1645170;85;21115;-88
2021/06/27 13:05:12;;;;;;;2.15;2.00;;;;;;;27.08;49.26;99721.77;1617546;86;21108;-86
2021/06/27 13:07:44;;;;;;;1.98;1.87;;;;;;;27.07;49.33;99722.34;1628441;86;21081;-85
2021/06/27 13:10:20;;;;;;;1.60;1.57;;;;;;;27.14;49.60;99720.51;1625717;86;21420;-85
2021/06/27 13:13:05;;;;;;;2.22;1.85;;;;;;;27.20;49.44;99713.80;1577063;89;21134;-86
2021/06/27 13:15:40;;;;;;;2.55;2.45;;;;;;;27.29;49.40;99720.13;1620241;87;21126;-89
2021/06/27 13:18:16;;;;;;;2.45;2.33;;;;;;;27.25;49.16;99716.41;1580930;89;21657;-84
2021/06/27 13:20:49;;;;;;;2.22;2.12;;;;;;;27.26;49.37;99713.13;1583380;89;21090;-86
2021/06/27 13:23:32;;;;;;;2.10;1.98;;;;;;;27.28;49.45;99708.95;1585233;89;21061;-84
2021/06/27 13:26:12;;;;;;;2.05;1.95;;;;;;;27.28;49.62;99710.32;1601958;88;21074;-86
2021/06/27 13:28:48;;;;;;;3.70;2.55;;;;;;;27.28;49.47;99704.05;1588748;88;21555;-84
2021/06/27 13:31:34;;;;;;;2.95;2.75;;;;;;;27.16;49.66;99706.78;1586436;89;21065;-86
2021/06/27 13:34:00;;;;;;;2.40;2.20;;;;;;;27.11;49.86;99710.22;1596754;88;21044;-86
2021/06/27 13:36:38;;;;;;;4.50;2.80;;;;;;;27.10;50.03;99714.06;1613503;86;21636;-82
2021/06/27 13:39:12;;;;;;;3.22;2.75;;;;;;;27.11;50.19;99704.74;1616576;87;21137;-85
2021/06/27 13:41:39;;;;;;;3.10;2.40;;;;;;;27.12;50.22;99709.08;1599439;87;21173;-84
2021/06/27 13:44:11;;;;;;;2.50;2.40;;;;;;;27.12;50.41;99707.71;1606704;88;21034;-85
2021/06/27 13:46:39;;;;;;;4.28;2.87;;;;;;;27.13;50.50;99710.70;1610877;87;21567;-85
2021/06/27 13:49:07;;;;;;;3.00;2.45;;;;;;;27.17;50.01;99717.16;1629837;86;21593;-85
2021/06/27 13:51:33;;;;;;;2.98;2.77;;;;;;;27.15;49.62;99713.94;1572766;89;21083;-83
2021/06/27 13:54:00;;;;;;;3.20;3.00;;;;;;;26.99;50.00;99706.14;1592995;89;21078;-84
2021/06/27 13:56:27;;;;;;;6.53;2.70;;;;;;;26.89;50.35;99723.36;1606769;88;21134;-82
2021/06/27 13:58:56;;;;;;;2.67;2.47;;;;;;;26.81;50.36;99719.45;1591750;87;21137;-84
2021/06/27 14:01:28;;;;;;;3.40;3.20;;;;;;;26.79;50.98;99725.80;1616912;87;21213;-84
2021/06/27 14:03:58;;;;;;;3.55;3.20;;;;;;;26.84;50.92;99727.58;1604601;85;21288;-85
2021/06/27 14:06:26;;;;;;;3.83;3.50;;;;;;;26.83;50.87;99736.91;1588585;88;21062;-88
2021/06/27 14:08:54;;;;;;;3.62;3.42;;;;;;;26.70;51.32;99734.49;1620322;86;21120;-86
2021/06/27 14:11:22;;;;;;;3.30;3.17;;;;;;;26.63;51.61;99735.48;1595523;87;21012;-85
2021/06/27 14:13:49;;;;;;;4.17;3.95;;;;;;;26.57;52.29;99738.86;1588695;88;21114;-85
2021/06/27 14:16:17;;;;;;;4.72;4.42;;;;;;;26.59;52.70;99733.36;1586093;89;21868;-87
2021/06/27 14:18:43;;;;;;;3.95;3.70;;;;;;;26.59;52.68;99741.55;1594582;88;21149;-88
2021/06/27 14:21:12;;;;;;;4.92;4.60;;;;;;;26.59;53.16;99726.52;1607515;87;21048;-86
2021/06/27 14:23:42;;;;;;;4.50;4.20;;;;;;;26.58;53.33;99739.12;1600002;87;21537;-85
2021/06/27 14:26:09;;;;;;;6.35;4.60;;;;;;;26.53;53.65;99733.20;1608266;87;21070;-86
2021/06/27 14:28:35;;;;;;;7.80;4.67;;;;;;;26.50;53.70;99730.28;1597733;88;21123;-82
2021/06/27 14:31:03;;;;;;;4.80;3.83;;;;;;;26.52;53.04;99727.52;1600542;88;21066;-85
2021/06/27 14:34:37;;;;;;;;;;;;;;;26.63;52.98;99730.81;1825869;75;24616;-85
2021/06/27 14:37:05;;;;;;;5.45;4.92;;;;;;;26.71;53.02;99736.92;1789287;78;20175;-83
2021/06/27 14:39:32;;;;;;;4.45;4.10;;;;;;;26.66;53.27;99736.23;1766905;79;21073;-83
2021/06/27 14:41:59;;;;;;;5.85;5.28;;;;;;;26.65;53.55;99742.24;1773386;79;21093;-84
2021/06/27 14:44:28;;;;;;;8.48;5.50;;;;;;;26.64;53.09;99737.11;1765224;79;21105;-86
2021/06/27 14:47:02;;;;;;;5.65;5.03;;;;;;;26.59;53.76;99737.45;1734024;79;21101;-85
2021/06/27 14:49:29;;;;;;;5.62;5.12;;;;;;;26.57;54.08;99730.09;1767375;79;21086;-84
2021/06/27 14:51:56;;;;;;;5.47;5.08;;;;;;;26.57;53.95;99737.50;1777545;79;21063;-86
2021/06/27 14:54:23;;;;;;;4.87;4.58;;;;;;;26.57;53.85;99733.39;1776547;79;20934;-85
2021/06/27 14:56:49;;;;;;;5.70;5.35;;;;;;;26.50;53.94;99733.81;1754732;79;20994;-85
2021/06/27 14:59:15;;;;;;;5.45;5.05;;;;;;;26.44;53.90;99721.40;1756033;80;21030;-85
2021/06/27 15:01:42;;;;;;;4.90;4.60;;;;;;;26.41;54.08;99723.41;1773100;77;21034;-84
2021/06/27 15:04:09;;;;;;;5.30;4.90;;;;;;;26.43;54.03;99721.16;1783413;78;21493;-85
2021/06/27 15:06:35;;;;;;;4.47;4.25;;;;;;;26.42;53.63;99715.44;1794511;77;21013;-86
2021/06/27 15:09:04;;;;;;;5.28;4.70;;;;;;;26.40;53.94;99717.67;1796920;77;21102;-87
2021/06/27 15:11:31;;;;;;;4.90;4.47;;;;;;;26.41;53.98;99726.14;1778761;79;21094;-86
2021/06/27 15:13:58;;;;;;;5.15;4.85;;;;;;;26.44;53.83;99729.59;1785753;79;21076;-85
2021/06/27 15:16:24;;;;;;;5.10;4.80;;;;;;;26.49;53.61;99715.82;1780754;78;21455;-86
2021/06/27 15:18:50;;;;;;;4.33;4.12;;;;;;;26.53;53.22;99718.17;1799075;77;20967;-87
2021/06/27 15:21:17;;;;;;;4.10;3.80;;;;;;;26.50;53.36;99717.98;1791334;78;21057;-85
2021/06/27 15:23:44;;;;;;;4.00;3.80;;;;;;;26.44;53.53;99719.23;1798290;77;21030;-85
2021/06/27 15:26:21;;;;;;;5.35;4.17;;;;;;;26.36;53.64;99722.14;1806895;77;21101;-87
2021/06/27 15:28:46;;;;;;;4.50;4.22;;;;;;;26.32;53.67;99714.33;1778282;77;21053;-90
2021/06/27 15:31:15;;;;;;;5.03;4.72;;;;;;;26.33;53.84;99715.92;1776789;78;21061;-87
2021/06/27 15:33:42;;;;;;;4.87;4.30;;;;;;;26.34;54.14;99716.19;1764315;77;21583;-86
2021/06/27 15:36:11;;;;;;;4.85;4.45;;;;;;;26.30;54.35;99724.75;1718223;82;20998;-87
2021/06/27 15:38:37;;;;;;;4.17;3.98;;;;;;;26.26;54.50;99719.09;1750064;80;21600;-85
2021/06/27 15:41:05;;;;;;;4.65;4.33;;;;;;;26.27;54.57;99728.09;1744913;82;21522;-85
2021/06/27 15:43:32;;;;;;;4.72;4.42;;;;;;;26.29;54.71;99719.03;1708831;81;20990;-86
2021/06/27 15:46:00;;;;;;;5.40;4.67;;;;;;;26.25;54.31;99720.20;1770072;80;21088;-85
2021/06/27 15:48:31;;;;;;;8.20;4.37;;;;;;;26.21;54.05;99721.38;1721863;80;21007;-84
2021/06/27 15:50:58;;;;;;;4.53;4.28;;;;;;;26.16;54.14;99718.77;1779095;76;21049;-86
2021/06/27 15:53:24;;;;;;;5.12;4.80;;;;;;;26.16;54.20;99720.14;1791222;77;21127;-84
2021/06/27 15:55:51;;;;;;;5.15;4.53;;;;;;;26.20;54.02;99716.21;1781919;77;20991;-85
2021/06/27 15:58:21;;;;;;;5.53;5.12;;;;;;;26.20;54.12;99712.94;1762052;77;21113;-85
2021/06/27 16:00:49;;;;;;;5.12;4.78;;;;;;;26.23;54.25;99716.41;1748250;78;21092;-85
2021/06/27 16:03:15;;;;;;;4.45;4.15;;;;;;;26.23;54.17;99713.67;1715598;82;21014;-84
2021/06/27 16:05:41;;;;;;;7.08;4.72;;;;;;;26.22;54.52;99719.47;1741583;78;20942;-85
2021/06/27 16:08:10;;;;;;;7.28;4.75;;;;;;;26.22;54.45;99727.66;1753474;80;21138;-83